sensor_id;sensor_type;location;lat;lon;timestamp;temperature;humidity
72277;SHT30;61204;49.980;8.358;2023-10-13T00:00:33;15.59;96.76
72277;SHT30;61204;49.980;8.358;2023-10-13T00:03:04;15.61;96.82
72277;SHT30;61204;49.980;8.358;2023-10-13T00:05:32;15.61;96.97
72277;SHT30;61204;49.980;8.358;2023-10-13T00:08:02;15.61;97.16
72277;SHT30;61204;49.980;8.358;2023-10-13T00:10:31;15.55;97.10
72277;SHT30;61204;49.980;8.358;2023-10-13T00:12:59;15.54;97.21
72277;SHT30;61204;49.980;8.358;2023-10-13T00:15:51;15.63;97.13
72277;SHT30;61204;49.980;8.358;2023-10-13T00:18:29;15.63;97.00
72277;SHT30;61204;49.980;8.358;2023-10-13T00:21:02;15.52;97.05
72277;SHT30;61204;49.980;8.358;2023-10-13T00:23:40;15.48;97.20
72277;SHT30;61204;49.980;8.358;2023-10-13T00:26:24;15.46;97.32
72277;SHT30;61204;49.980;8.358;2023-10-13T00:28:57;15.46;97.41
72277;SHT30;61204;49.980;8.358;2023-10-13T00:31:33;15.42;97.38
72277;SHT30;61204;49.980;8.358;2023-10-13T00:34:06;15.39;97.46
72277;SHT30;61204;49.980;8.358;2023-10-13T00:36:50;15.38;97.53
72277;SHT30;61204;49.980;8.358;2023-10-13T00:39:35;15.38;97.57
72277;SHT30;61204;49.980;8.358;2023-10-13T00:42:14;15.42;97.70
72277;SHT30;61204;49.980;8.358;2023-10-13T00:44:51;15.45;97.63
72277;SHT30;61204;49.980;8.358;2023-10-13T00:47:21;15.46;97.70
72277;SHT30;61204;49.980;8.358;2023-10-13T00:50:12;15.45;97.66
72277;SHT30;61204;49.980;8.358;2023-10-13T00:52:41;15.45;97.66
72277;SHT30;61204;49.980;8.358;2023-10-13T00:55:13;15.42;97.68
72277;SHT30;61204;49.980;8.358;2023-10-13T00:57:40;15.39;97.70
72277;SHT30;61204;49.980;8.358;2023-10-13T01:00:07;15.38;97.73
72277;SHT30;61204;49.980;8.358;2023-10-13T01:02:59;15.34;97.74
72277;SHT30;61204;49.980;8.358;2023-10-13T01:05:33;15.38;97.80
72277;SHT30;61204;49.980;8.358;2023-10-13T01:08:02;15.38;97.79
72277;SHT30;61204;49.980;8.358;2023-10-13T01:10:28;15.38;97.85
72277;SHT30;61204;49.980;8.358;2023-10-13T01:12:58;15.37;97.86
72277;SHT30;61204;49.980;8.358;2023-10-13T01:15:27;15.38;97.91
72277;SHT30;61204;49.980;8.358;2023-10-13T01:18:10;15.37;97.93
72277;SHT30;61204;49.980;8.358;2023-10-13T01:20:38;15.38;97.92
72277;SHT30;61204;49.980;8.358;2023-10-13T01:23:13;15.37;97.97
72277;SHT30;61204;49.980;8.358;2023-10-13T01:25:49;15.38;98.08
72277;SHT30;61204;49.980;8.358;2023-10-13T01:28:16;15.45;98.09
72277;SHT30;61204;49.980;8.358;2023-10-13T01:30:45;15.55;97.79
72277;SHT30;61204;49.980;8.358;2023-10-13T01:33:18;15.56;97.67
72277;SHT30;61204;49.980;8.358;2023-10-13T01:35:55;15.56;97.64
72277;SHT30;61204;49.980;8.358;2023-10-13T01:38:23;15.51;97.62
72277;SHT30;61204;49.980;8.358;2023-10-13T01:40:53;15.46;97.74
72277;SHT30;61204;49.980;8.358;2023-10-13T01:43:21;15.49;97.80
72277;SHT30;61204;49.980;8.358;2023-10-13T01:45:48;15.48;97.84
72277;SHT30;61204;49.980;8.358;2023-10-13T01:48:18;15.52;97.86
72277;SHT30;61204;49.980;8.358;2023-10-13T01:50:46;15.58;97.84
72277;SHT30;61204;49.980;8.358;2023-10-13T01:53:21;15.61;97.75
72277;SHT30;61204;49.980;8.358;2023-10-13T01:55:48;15.63;97.69
72277;SHT30;61204;49.980;8.358;2023-10-13T01:58:16;15.66;97.64
72277;SHT30;61204;49.980;8.358;2023-10-13T02:00:46;15.65;97.58
72277;SHT30;61204;49.980;8.358;2023-10-13T02:03:15;15.70;97.59
72277;SHT30;61204;49.980;8.358;2023-10-13T02:05:46;15.78;97.38
72277;SHT30;61204;49.980;8.358;2023-10-13T02:08:18;15.70;97.30
72277;SHT30;61204;49.980;8.358;2023-10-13T02:10:51;15.66;97.25
72277;SHT30;61204;49.980;8.358;2023-10-13T02:13:22;15.65;97.32
72277;SHT30;61204;49.980;8.358;2023-10-13T02:15:53;15.63;97.37
72277;SHT30;61204;49.980;8.358;2023-10-13T02:18:23;15.70;97.23
72277;SHT30;61204;49.980;8.358;2023-10-13T02:20:56;15.70;97.22
72277;SHT30;61204;49.980;8.358;2023-10-13T02:23:29;15.66;97.32
72277;SHT30;61204;49.980;8.358;2023-10-13T02:26:01;15.69;97.42
72277;SHT30;61204;49.980;8.358;2023-10-13T02:28:29;15.66;97.42
72277;SHT30;61204;49.980;8.358;2023-10-13T02:31:04;15.65;97.42
72277;SHT30;61204;49.980;8.358;2023-10-13T02:33:32;15.63;97.41
72277;SHT30;61204;49.980;8.358;2023-10-13T02:36:00;15.76;97.42
72277;SHT30;61204;49.980;8.358;2023-10-13T02:38:34;15.80;96.51
72277;SHT30;61204;49.980;8.358;2023-10-13T02:41:01;15.65;96.62
72277;SHT30;61204;49.980;8.358;2023-10-13T02:43:36;15.55;96.75
72277;SHT30;61204;49.980;8.358;2023-10-13T02:46:04;15.58;96.96
72277;SHT30;61204;49.980;8.358;2023-10-13T02:48:30;15.61;96.93
72277;SHT30;61204;49.980;8.358;2023-10-13T02:51:06;15.54;97.03
72277;SHT30;61204;49.980;8.358;2023-10-13T02:53:45;15.52;97.13
72277;SHT30;61204;49.980;8.358;2023-10-13T02:56:14;15.59;97.09
72277;SHT30;61204;49.980;8.358;2023-10-13T02:58:48;15.52;97.16
72277;SHT30;61204;49.980;8.358;2023-10-13T03:01:19;15.54;97.24
72277;SHT30;61204;49.980;8.358;2023-10-13T03:03:51;15.55;97.22
72277;SHT30;61204;49.980;8.358;2023-10-13T03:06:21;15.51;97.22
72277;SHT30;61204;49.980;8.358;2023-10-13T03:08:52;15.58;97.31
72277;SHT30;61204;49.980;8.358;2023-10-13T03:11:18;15.54;97.32
72277;SHT30;61204;49.980;8.358;2023-10-13T03:13:49;15.52;97.32
72277;SHT30;61204;49.980;8.358;2023-10-13T03:16:18;15.54;97.37
72277;SHT30;61204;49.980;8.358;2023-10-13T03:18:47;15.52;97.35
72277;SHT30;61204;49.980;8.358;2023-10-13T03:21:23;15.54;97.42
72277;SHT30;61204;49.980;8.358;2023-10-13T03:23:59;15.49;97.39
72277;SHT30;61204;49.980;8.358;2023-10-13T03:26:33;15.48;97.36
72277;SHT30;61204;49.980;8.358;2023-10-13T03:29:03;15.45;97.42
72277;SHT30;61204;49.980;8.358;2023-10-13T03:31:32;15.42;97.46
72277;SHT30;61204;49.980;8.358;2023-10-13T03:34:04;15.34;97.46
72277;SHT30;61204;49.980;8.358;2023-10-13T03:36:36;15.27;97.60
72277;SHT30;61204;49.980;8.358;2023-10-13T03:39:20;15.24;97.60
72277;SHT30;61204;49.980;8.358;2023-10-13T03:41:52;15.38;97.65
72277;SHT30;61204;49.980;8.358;2023-10-13T03:44:19;15.65;97.18
72277;SHT30;61204;49.980;8.358;2023-10-13T03:46:46;15.51;96.89
72277;SHT30;61204;49.980;8.358;2023-10-13T03:49:17;15.51;96.98
72277;SHT30;61204;49.980;8.358;2023-10-13T03:51:50;15.41;96.92
72277;SHT30;61204;49.980;8.358;2023-10-13T03:54:20;15.37;97.07
72277;SHT30;61204;49.980;8.358;2023-10-13T03:56:48;15.28;97.06
72277;SHT30;61204;49.980;8.358;2023-10-13T03:59:17;15.21;97.22
72277;SHT30;61204;49.980;8.358;2023-10-13T04:01:45;15.14;97.38
72277;SHT30;61204;49.980;8.358;2023-10-13T04:04:18;15.14;97.52
72277;SHT30;61204;49.980;8.358;2023-10-13T04:07:03;15.07;97.47
72277;SHT30;61204;49.980;8.358;2023-10-13T04:09:32;15.06;97.68
72277;SHT30;61204;49.980;8.358;2023-10-13T04:12:00;15.08;97.75
72277;SHT30;61204;49.980;8.358;2023-10-13T04:14:41;15.14;97.81
72277;SHT30;61204;49.980;8.358;2023-10-13T04:17:29;15.14;97.82
72277;SHT30;61204;49.980;8.358;2023-10-13T04:20:01;15.14;97.79
72277;SHT30;61204;49.980;8.358;2023-10-13T04:22:41;15.14;97.82
72277;SHT30;61204;49.980;8.358;2023-10-13T04:25:24;15.20;97.73
72277;SHT30;61204;49.980;8.358;2023-10-13T04:30:53;15.20;97.73
72277;SHT30;61204;49.980;8.358;2023-10-13T04:33:23;15.16;97.59
72277;SHT30;61204;49.980;8.358;2023-10-13T04:35:55;15.17;97.68
72277;SHT30;61204;49.980;8.358;2023-10-13T04:38:24;15.12;97.61
72277;SHT30;61204;49.980;8.358;2023-10-13T04:40:58;15.08;97.65
72277;SHT30;61204;49.980;8.358;2023-10-13T04:43:26;15.14;97.68
72277;SHT30;61204;49.980;8.358;2023-10-13T04:45:59;15.08;97.69
72277;SHT30;61204;49.980;8.358;2023-10-13T04:48:39;15.06;97.65
72277;SHT30;61204;49.980;8.358;2023-10-13T04:51:06;15.04;97.66
72277;SHT30;61204;49.980;8.358;2023-10-13T04:53:59;15.04;97.62
72277;SHT30;61204;49.980;8.358;2023-10-13T04:56:25;15.03;97.71
72277;SHT30;61204;49.980;8.358;2023-10-13T04:59:03;15.03;97.78
72277;SHT30;61204;49.980;8.358;2023-10-13T05:01:44;15.00;97.79
72277;SHT30;61204;49.980;8.358;2023-10-13T05:04:35;15.10;97.72
72277;SHT30;61204;49.980;8.358;2023-10-13T05:07:03;15.11;97.63
72277;SHT30;61204;49.980;8.358;2023-10-13T05:09:47;15.10;97.58
72277;SHT30;61204;49.980;8.358;2023-10-13T05:12:31;15.10;97.56
72277;SHT30;61204;49.980;8.358;2023-10-13T05:15:15;15.12;97.59
72277;SHT30;61204;49.980;8.358;2023-10-13T05:18:00;15.08;97.61
72277;SHT30;61204;49.980;8.358;2023-10-13T05:20:44;15.07;97.59
72277;SHT30;61204;49.980;8.358;2023-10-13T05:23:28;15.12;97.47
72277;SHT30;61204;49.980;8.358;2023-10-13T05:26:26;15.11;97.40
72277;SHT30;61204;49.980;8.358;2023-10-13T05:29:14;15.10;97.35
72277;SHT30;61204;49.980;8.358;2023-10-13T05:31:57;15.17;97.17
72277;SHT30;61204;49.980;8.358;2023-10-13T05:34:42;15.14;97.09
72277;SHT30;61204;49.980;8.358;2023-10-13T05:37:26;15.12;97.19
72277;SHT30;61204;49.980;8.358;2023-10-13T05:40:10;15.17;97.11
72277;SHT30;61204;49.980;8.358;2023-10-13T05:42:54;15.14;97.17
72277;SHT30;61204;49.980;8.358;2023-10-13T05:45:38;15.17;97.12
72277;SHT30;61204;49.980;8.358;2023-10-13T05:48:22;15.24;97.11
72277;SHT30;61204;49.980;8.358;2023-10-13T05:51:07;15.31;96.81
72277;SHT30;61204;49.980;8.358;2023-10-13T05:53:51;15.31;96.61
72277;SHT30;61204;49.980;8.358;2023-10-13T05:56:35;15.31;96.52
72277;SHT30;61204;49.980;8.358;2023-10-13T05:59:22;15.35;96.41
72277;SHT30;61204;49.980;8.358;2023-10-13T06:02:06;15.32;96.31
72277;SHT30;61204;49.980;8.358;2023-10-13T06:04:53;15.28;96.34
72277;SHT30;61204;49.980;8.358;2023-10-13T06:07:37;15.28;96.41
72277;SHT30;61204;49.980;8.358;2023-10-13T06:10:21;15.37;96.47
72277;SHT30;61204;49.980;8.358;2023-10-13T06:13:06;15.39;96.30
72277;SHT30;61204;49.980;8.358;2023-10-13T06:15:51;15.51;96.26
72277;SHT30;61204;49.980;8.358;2023-10-13T06:18:34;15.69;95.92
72277;SHT30;61204;49.980;8.358;2023-10-13T06:21:20;15.91;95.35
72277;SHT30;61204;49.980;8.358;2023-10-13T06:24:07;16.11;94.27
72277;SHT30;61204;49.980;8.358;2023-10-13T06:26:51;16.34;93.64
72277;SHT30;61204;49.980;8.358;2023-10-13T06:29:35;16.52;93.32
72277;SHT30;61204;49.980;8.358;2023-10-13T06:32:01;16.62;92.65
72277;SHT30;61204;49.980;8.358;2023-10-13T06:34:30;16.69;92.38
72277;SHT30;61204;49.980;8.358;2023-10-13T06:37:15;16.68;92.40
72277;SHT30;61204;49.980;8.358;2023-10-13T06:39:58;16.73;92.49
72277;SHT30;61204;49.980;8.358;2023-10-13T06:42:32;16.72;93.02
72277;SHT30;61204;49.980;8.358;2023-10-13T06:45:10;16.84;93.07
72277;SHT30;61204;49.980;8.358;2023-10-13T06:47:38;16.96;92.28
72277;SHT30;61204;49.980;8.358;2023-10-13T06:50:14;17.06;91.45
72277;SHT30;61204;49.980;8.358;2023-10-13T06:52:44;17.30;92.22
72277;SHT30;61204;49.980;8.358;2023-10-13T06:55:16;17.30;91.04
72277;SHT30;61204;49.980;8.358;2023-10-13T06:58:00;17.35;91.40
72277;SHT30;61204;49.980;8.358;2023-10-13T07:00:27;17.42;90.45
72277;SHT30;61204;49.980;8.358;2023-10-13T07:02:57;17.46;90.20
72277;SHT30;61204;49.980;8.358;2023-10-13T07:05:39;17.76;89.73
72277;SHT30;61204;49.980;8.358;2023-10-13T07:08:07;17.94;88.13
72277;SHT30;61204;49.980;8.358;2023-10-13T07:10:35;18.00;88.01
72277;SHT30;61204;49.980;8.358;2023-10-13T07:13:14;17.89;89.19
72277;SHT30;61204;49.980;8.358;2023-10-13T07:15:42;17.71;89.64
72277;SHT30;61204;49.980;8.358;2023-10-13T07:18:15;17.66;91.06
72277;SHT30;61204;49.980;8.358;2023-10-13T07:20:48;17.73;90.55
72277;SHT30;61204;49.980;8.358;2023-10-13T07:23:14;18.01;90.29
72277;SHT30;61204;49.980;8.358;2023-10-13T07:25:52;18.18;88.58
72277;SHT30;61204;49.980;8.358;2023-10-13T07:28:20;18.62;87.38
72277;SHT30;61204;49.980;8.358;2023-10-13T07:30:47;18.95;85.56
72277;SHT30;61204;49.980;8.358;2023-10-13T07:33:19;19.02;85.76
72277;SHT30;61204;49.980;8.358;2023-10-13T07:36:04;19.41;84.42
72277;SHT30;61204;49.980;8.358;2023-10-13T07:38:42;19.76;82.76
72277;SHT30;61204;49.980;8.358;2023-10-13T07:41:14;19.73;83.39
72277;SHT30;61204;49.980;8.358;2023-10-13T07:43:43;19.85;82.39
72277;SHT30;61204;49.980;8.358;2023-10-13T07:46:10;19.85;81.91
72277;SHT30;61204;49.980;8.358;2023-10-13T07:48:38;20.23;81.30
72277;SHT30;61204;49.980;8.358;2023-10-13T07:51:08;20.35;81.78
72277;SHT30;61204;49.980;8.358;2023-10-13T07:53:46;20.53;81.09
72277;SHT30;61204;49.980;8.358;2023-10-13T07:56:15;20.48;80.29
72277;SHT30;61204;49.980;8.358;2023-10-13T07:58:44;20.65;80.91
72277;SHT30;61204;49.980;8.358;2023-10-13T08:01:18;20.78;79.85
72277;SHT30;61204;49.980;8.358;2023-10-13T08:03:47;20.97;78.83
72277;SHT30;61204;49.980;8.358;2023-10-13T08:06:17;21.17;79.91
72277;SHT30;61204;49.980;8.358;2023-10-13T08:08:46;20.73;77.80
72277;SHT30;61204;49.980;8.358;2023-10-13T08:11:17;20.42;80.48
72277;SHT30;61204;49.980;8.358;2023-10-13T08:13:52;20.45;79.73
72277;SHT30;61204;49.980;8.358;2023-10-13T08:16:23;20.78;80.88
72277;SHT30;61204;49.980;8.358;2023-10-13T08:19:09;21.03;78.48
72277;SHT30;61204;49.980;8.358;2023-10-13T08:21:35;21.14;77.16
72277;SHT30;61204;49.980;8.358;2023-10-13T08:24:03;21.08;77.63
72277;SHT30;61204;49.980;8.358;2023-10-13T08:26:34;21.06;77.34
72277;SHT30;61204;49.980;8.358;2023-10-13T08:29:18;21.17;77.22
72277;SHT30;61204;49.980;8.358;2023-10-13T08:31:50;21.37;77.28
72277;SHT30;61204;49.980;8.358;2023-10-13T08:34:36;21.57;75.52
72277;SHT30;61204;49.980;8.358;2023-10-13T08:37:27;21.92;76.40
72277;SHT30;61204;49.980;8.358;2023-10-13T08:40:00;22.23;74.25
72277;SHT30;61204;49.980;8.358;2023-10-13T08:42:33;22.47;72.98
72277;SHT30;61204;49.980;8.358;2023-10-13T08:45:13;22.71;72.08
72277;SHT30;61204;49.980;8.358;2023-10-13T08:48:00;22.54;72.45
72277;SHT30;61204;49.980;8.358;2023-10-13T08:50:51;22.31;74.53
72277;SHT30;61204;49.980;8.358;2023-10-13T08:56:10;22.27;73.73
72277;SHT30;61204;49.980;8.358;2023-10-13T08:58:40;22.12;73.18
72277;SHT30;61204;49.980;8.358;2023-10-13T09:01:32;21.83;72.60
72277;SHT30;61204;49.980;8.358;2023-10-13T09:04:14;21.85;72.85
72277;SHT30;61204;49.980;8.358;2023-10-13T09:06:45;21.66;74.31
72277;SHT30;61204;49.980;8.358;2023-10-13T09:09:48;21.72;74.03
72277;SHT30;61204;49.980;8.358;2023-10-13T09:12:22;21.95;74.01
72277;SHT30;61204;49.980;8.358;2023-10-13T09:17:40;22.91;69.12
72277;SHT30;61204;49.980;8.358;2023-10-13T09:20:09;23.31;67.79
72277;SHT30;61204;49.980;8.358;2023-10-13T09:22:55;23.04;67.36
72277;SHT30;61204;49.980;8.358;2023-10-13T09:25:37;23.02;66.96
72277;SHT30;61204;49.980;8.358;2023-10-13T09:28:15;23.12;68.26
72277;SHT30;61204;49.980;8.358;2023-10-13T09:30:48;23.14;66.44
72277;SHT30;61204;49.980;8.358;2023-10-13T09:33:26;23.09;65.32
72277;SHT30;61204;49.980;8.358;2023-10-13T09:36:07;22.76;66.78
72277;SHT30;61204;49.980;8.358;2023-10-13T09:38:38;22.91;66.22
72277;SHT30;61204;49.980;8.358;2023-10-13T09:41:13;23.21;64.76
72277;SHT30;61204;49.980;8.358;2023-10-13T09:43:45;23.41;65.41
72277;SHT30;61204;49.980;8.358;2023-10-13T09:46:19;23.48;64.25
72277;SHT30;61204;49.980;8.358;2023-10-13T09:48:49;23.61;63.73
72277;SHT30;61204;49.980;8.358;2023-10-13T09:51:30;23.79;63.02
72277;SHT30;61204;49.980;8.358;2023-10-13T09:54:09;23.69;64.26
72277;SHT30;61204;49.980;8.358;2023-10-13T09:56:43;24.03;63.16
72277;SHT30;61204;49.980;8.358;2023-10-13T09:59:22;24.27;61.50
72277;SHT30;61204;49.980;8.358;2023-10-13T10:02:01;24.20;61.49
72277;SHT30;61204;49.980;8.358;2023-10-13T10:04:59;24.31;61.95
72277;SHT30;61204;49.980;8.358;2023-10-13T10:07:55;24.60;61.46
72277;SHT30;61204;49.980;8.358;2023-10-13T10:10:49;24.68;60.16
72277;SHT30;61204;49.980;8.358;2023-10-13T10:17:22;25.08;59.63
72277;SHT30;61204;49.980;8.358;2023-10-13T10:19:53;25.57;59.16
72277;SHT30;61204;49.980;8.358;2023-10-13T10:22:32;25.98;59.20
72277;SHT30;61204;49.980;8.358;2023-10-13T10:25:03;25.95;58.16
72277;SHT30;61204;49.980;8.358;2023-10-13T10:27:33;25.99;57.26
72277;SHT30;61204;49.980;8.358;2023-10-13T10:30:00;26.20;57.80
72277;SHT30;61204;49.980;8.358;2023-10-13T10:32:38;26.17;57.76
72277;SHT30;61204;49.980;8.358;2023-10-13T10:35:10;25.23;58.53
72277;SHT30;61204;49.980;8.358;2023-10-13T10:37:46;25.20;60.49
72277;SHT30;61204;49.980;8.358;2023-10-13T10:40:21;25.27;59.95
72277;SHT30;61204;49.980;8.358;2023-10-13T10:43:05;25.51;59.58
72277;SHT30;61204;49.980;8.358;2023-10-13T10:45:37;25.95;57.55
72277;SHT30;61204;49.980;8.358;2023-10-13T10:48:12;26.62;57.32
72277;SHT30;61204;49.980;8.358;2023-10-13T10:50:51;26.54;56.93
72277;SHT30;61204;49.980;8.358;2023-10-13T10:53:23;26.27;56.66
72277;SHT30;61204;49.980;8.358;2023-10-13T10:56:08;26.26;57.65
72277;SHT30;61204;49.980;8.358;2023-10-13T10:58:59;25.89;58.85
72277;SHT30;61204;49.980;8.358;2023-10-13T11:01:31;26.25;57.71
72277;SHT30;61204;49.980;8.358;2023-10-13T11:04:13;26.45;57.04
72277;SHT30;61204;49.980;8.358;2023-10-13T11:06:50;26.67;57.16
72277;SHT30;61204;49.980;8.358;2023-10-13T11:09:28;27.15;56.07
72277;SHT30;61204;49.980;8.358;2023-10-13T11:12:13;27.49;54.69
72277;SHT30;61204;49.980;8.358;2023-10-13T11:14:44;28.02;53.23
72277;SHT30;61204;49.980;8.358;2023-10-13T11:17:23;28.23;52.82
72277;SHT30;61204;49.980;8.358;2023-10-13T11:20:16;28.53;51.20
72277;SHT30;61204;49.980;8.358;2023-10-13T11:22:47;28.50;49.93
72277;SHT30;61204;49.980;8.358;2023-10-13T11:25:30;28.39;50.22
72277;SHT30;61204;49.980;8.358;2023-10-13T11:28:16;27.55;52.35
72277;SHT30;61204;49.980;8.358;2023-10-13T11:30:55;28.10;53.24
72277;SHT30;61204;49.980;8.358;2023-10-13T11:33:25;28.77;53.06
72277;SHT30;61204;49.980;8.358;2023-10-13T11:35:57;28.49;52.59
72277;SHT30;61204;49.980;8.358;2023-10-13T11:38:34;28.19;52.11
72277;SHT30;61204;49.980;8.358;2023-10-13T11:41:06;28.06;53.06
72277;SHT30;61204;49.980;8.358;2023-10-13T11:43:43;27.57;50.40
72277;SHT30;61204;49.980;8.358;2023-10-13T11:46:26;26.67;51.16
72277;SHT30;61204;49.980;8.358;2023-10-13T11:49:06;26.47;53.46
72277;SHT30;61204;49.980;8.358;2023-10-13T11:51:52;26.23;52.87
72277;SHT30;61204;49.980;8.358;2023-10-13T11:54:27;26.20;52.71
72277;SHT30;61204;49.980;8.358;2023-10-13T11:56:53;26.34;52.21
72277;SHT30;61204;49.980;8.358;2023-10-13T11:59:23;26.72;51.01
72277;SHT30;61204;49.980;8.358;2023-10-13T12:01:53;27.08;50.93
72277;SHT30;61204;49.980;8.358;2023-10-13T12:04:39;26.85;51.11
72277;SHT30;61204;49.980;8.358;2023-10-13T12:07:08;27.05;50.99
72277;SHT30;61204;49.980;8.358;2023-10-13T12:09:41;27.26;49.56
72277;SHT30;61204;49.980;8.358;2023-10-13T12:12:17;26.58;51.31
72277;SHT30;61204;49.980;8.358;2023-10-13T12:14:43;26.29;52.38
72277;SHT30;61204;49.980;8.358;2023-10-13T12:17:36;26.85;52.18
72277;SHT30;61204;49.980;8.358;2023-10-13T12:20:06;26.53;51.14
72277;SHT30;61204;49.980;8.358;2023-10-13T12:22:37;26.57;52.33
72277;SHT30;61204;49.980;8.358;2023-10-13T12:25:16;26.65;52.08
72277;SHT30;61204;49.980;8.358;2023-10-13T12:28:10;26.89;51.94
72277;SHT30;61204;49.980;8.358;2023-10-13T12:30:45;26.53;53.89
72277;SHT30;61204;49.980;8.358;2023-10-13T12:33:17;26.82;52.57
72277;SHT30;61204;49.980;8.358;2023-10-13T12:35:59;26.91;52.33
72277;SHT30;61204;49.980;8.358;2023-10-13T12:38:37;26.50;50.47
72277;SHT30;61204;49.980;8.358;2023-10-13T12:41:17;26.53;50.58
72277;SHT30;61204;49.980;8.358;2023-10-13T12:44:04;26.54;50.60
72277;SHT30;61204;49.980;8.358;2023-10-13T12:46:51;26.39;50.50
72277;SHT30;61204;49.980;8.358;2023-10-13T12:49:37;26.19;50.75
72277;SHT30;61204;49.980;8.358;2023-10-13T12:52:17;26.12;51.39
72277;SHT30;61204;49.980;8.358;2023-10-13T12:54:50;26.17;51.40
72277;SHT30;61204;49.980;8.358;2023-10-13T12:57:26;26.60;50.22
72277;SHT30;61204;49.980;8.358;2023-10-13T12:59:54;26.74;49.37
72277;SHT30;61204;49.980;8.358;2023-10-13T13:02:25;27.02;49.59
72277;SHT30;61204;49.980;8.358;2023-10-13T13:04:56;26.98;48.79
72277;SHT30;61204;49.980;8.358;2023-10-13T13:07:36;27.00;49.28
72277;SHT30;61204;49.980;8.358;2023-10-13T13:10:13;27.33;48.49
72277;SHT30;61204;49.980;8.358;2023-10-13T13:12:42;27.71;47.47
72277;SHT30;61204;49.980;8.358;2023-10-13T13:15:09;28.08;46.66
72277;SHT30;61204;49.980;8.358;2023-10-13T13:17:38;27.82;46.30
72277;SHT30;61204;49.980;8.358;2023-10-13T13:20:08;27.92;46.53
72277;SHT30;61204;49.980;8.358;2023-10-13T13:22:52;27.81;46.20
72277;SHT30;61204;49.980;8.358;2023-10-13T13:25:19;27.91;45.69
72277;SHT30;61204;49.980;8.358;2023-10-13T13:27:51;28.29;44.36
72277;SHT30;61204;49.980;8.358;2023-10-13T13:30:19;28.84;44.74
72277;SHT30;61204;49.980;8.358;2023-10-13T13:32:46;27.99;44.35
72277;SHT30;61204;49.980;8.358;2023-10-13T13:35:13;28.02;44.34
72277;SHT30;61204;49.980;8.358;2023-10-13T13:37:40;27.84;43.98
72277;SHT30;61204;49.980;8.358;2023-10-13T13:40:10;27.58;45.29
72277;SHT30;61204;49.980;8.358;2023-10-13T13:42:43;28.17;43.87
72277;SHT30;61204;49.980;8.358;2023-10-13T13:45:17;28.50;43.43
72277;SHT30;61204;49.980;8.358;2023-10-13T13:47:53;28.29;44.26
72277;SHT30;61204;49.980;8.358;2023-10-13T13:50:25;28.29;44.75
72277;SHT30;61204;49.980;8.358;2023-10-13T13:52:55;28.31;45.26
72277;SHT30;61204;49.980;8.358;2023-10-13T13:55:26;27.99;44.52
72277;SHT30;61204;49.980;8.358;2023-10-13T13:57:56;28.10;45.60
72277;SHT30;61204;49.980;8.358;2023-10-13T14:00:23;28.31;45.44
72277;SHT30;61204;49.980;8.358;2023-10-13T14:03:08;27.74;45.18
72277;SHT30;61204;49.980;8.358;2023-10-13T14:05:44;27.61;45.42
72277;SHT30;61204;49.980;8.358;2023-10-13T14:08:10;27.36;45.85
72277;SHT30;61204;49.980;8.358;2023-10-13T14:10:40;27.05;46.46
72277;SHT30;61204;49.980;8.358;2023-10-13T14:13:30;27.02;47.10
72277;SHT30;61204;49.980;8.358;2023-10-13T14:16:18;26.75;46.47
72277;SHT30;61204;49.980;8.358;2023-10-13T14:18:47;26.85;46.78
72277;SHT30;61204;49.980;8.358;2023-10-13T14:21:14;26.74;45.98
72277;SHT30;61204;49.980;8.358;2023-10-13T14:23:46;26.78;46.27
72277;SHT30;61204;49.980;8.358;2023-10-13T14:26:14;26.72;46.71
72277;SHT30;61204;49.980;8.358;2023-10-13T14:28:52;27.19;46.39
72277;SHT30;61204;49.980;8.358;2023-10-13T14:31:31;27.29;46.24
72277;SHT30;61204;49.980;8.358;2023-10-13T14:33:57;27.02;46.99
72277;SHT30;61204;49.980;8.358;2023-10-13T14:36:26;27.23;46.25
72277;SHT30;61204;49.980;8.358;2023-10-13T14:38:57;27.55;44.63
72277;SHT30;61204;49.980;8.358;2023-10-13T14:41:23;27.53;43.65
72277;SHT30;61204;49.980;8.358;2023-10-13T14:43:49;27.60;41.91
72277;SHT30;61204;49.980;8.358;2023-10-13T14:48:45;27.30;42.99
72277;SHT30;61204;49.980;8.358;2023-10-13T14:51:14;26.77;43.99
72277;SHT30;61204;49.980;8.358;2023-10-13T14:53:47;26.64;44.53
72277;SHT30;61204;49.980;8.358;2023-10-13T14:56:15;26.54;44.24
72277;SHT30;61204;49.980;8.358;2023-10-13T14:58:44;26.55;44.49
72277;SHT30;61204;49.980;8.358;2023-10-13T15:01:22;26.34;44.45
72277;SHT30;61204;49.980;8.358;2023-10-13T15:03:53;26.41;44.54
72277;SHT30;61204;49.980;8.358;2023-10-13T15:06:27;26.30;44.52
72277;SHT30;61204;49.980;8.358;2023-10-13T15:09:00;26.27;44.44
72277;SHT30;61204;49.980;8.358;2023-10-13T15:11:27;26.36;44.34
72277;SHT30;61204;49.980;8.358;2023-10-13T15:14:05;26.19;44.64
72277;SHT30;61204;49.980;8.358;2023-10-13T15:16:32;26.20;44.86
72277;SHT30;61204;49.980;8.358;2023-10-13T15:19:01;26.00;45.17
72277;SHT30;61204;49.980;8.358;2023-10-13T15:21:30;26.03;45.32
72277;SHT30;61204;49.980;8.358;2023-10-13T15:24:07;26.06;45.27
72277;SHT30;61204;49.980;8.358;2023-10-13T15:26:40;26.02;45.96
72277;SHT30;61204;49.980;8.358;2023-10-13T15:29:19;26.03;46.52
72277;SHT30;61204;49.980;8.358;2023-10-13T15:31:52;25.92;46.89
72277;SHT30;61204;49.980;8.358;2023-10-13T15:34:24;25.80;47.51
72277;SHT30;61204;49.980;8.358;2023-10-13T15:36:51;25.64;48.80
72277;SHT30;61204;49.980;8.358;2023-10-13T15:39:18;25.64;49.36
72277;SHT30;61204;49.980;8.358;2023-10-13T15:41:53;25.54;49.48
72277;SHT30;61204;49.980;8.358;2023-10-13T15:44:20;25.37;50.14
72277;SHT30;61204;49.980;8.358;2023-10-13T15:46:53;25.26;50.65
72277;SHT30;61204;49.980;8.358;2023-10-13T15:49:20;25.13;50.57
72277;SHT30;61204;49.980;8.358;2023-10-13T15:51:45;25.00;51.19
72277;SHT30;61204;49.980;8.358;2023-10-13T15:54:12;24.88;50.49
72277;SHT30;61204;49.980;8.358;2023-10-13T15:56:45;24.75;51.30
72277;SHT30;61204;49.980;8.358;2023-10-13T15:59:14;24.68;51.25
72277;SHT30;61204;49.980;8.358;2023-10-13T16:01:41;24.61;52.11
72277;SHT30;61204;49.980;8.358;2023-10-13T16:04:08;24.44;52.12
72277;SHT30;61204;49.980;8.358;2023-10-13T16:06:41;24.30;52.70
72277;SHT30;61204;49.980;8.358;2023-10-13T16:09:14;24.30;51.56
72277;SHT30;61204;49.980;8.358;2023-10-13T16:11:44;24.21;52.23
72277;SHT30;61204;49.980;8.358;2023-10-13T16:14:16;24.09;52.37
72277;SHT30;61204;49.980;8.358;2023-10-13T16:16:47;24.02;53.61
72277;SHT30;61204;49.980;8.358;2023-10-13T16:19:15;23.98;52.74
72277;SHT30;61204;49.980;8.358;2023-10-13T16:21:46;23.88;53.74
72277;SHT30;61204;49.980;8.358;2023-10-13T16:24:12;23.74;53.97
72277;SHT30;61204;49.980;8.358;2023-10-13T16:26:44;23.65;53.73
72277;SHT30;61204;49.980;8.358;2023-10-13T16:29:10;23.57;53.55
72277;SHT30;61204;49.980;8.358;2023-10-13T16:31:35;23.48;54.73